We bring you up!

Munich Aviation Company

Munich Aviation Company

Munich Aviation Company

Munich Aviation Company

Sie finden uns auch auf: Munich Aviation Company auf Instagram

Flugwetter Augsburg

[Quelle: ADDS]
METAR
EDMA 160320Z AUTO 22006KT 9999 SCT053/// BKN068/// 07/05 Q1007 =
EDMA 151700Z 1518/1603 20010KT 9999 OVC040 TEMPO 1518/1523 RA
TAF
EDMA 151700Z 1518/1603 20010KT 9999 OVC040 TEMPO 1518/1523 RA =

Kontakt